Wiconisco, Pennsylvania
Current Conditions -  °F | °C
As of 8:58 AM on Monday 20 Oct 2014 (Local Time) from KMUI Reporting Station
Few Clouds Few Clouds  
Wind Chill: 38°   Ceiling: Unl
Heat Index: 38°   Visibility: 10mi
Dew Point: 38°   Wind: 3mph
Humidity: 100%   Direction: 160°SSE
Pressure: 30.12"   Gusts: NA
Location:  40.57°N, 76.69°W
Report Text: KMUI 201258Z AUTO 16003KT 10SM FEW140 03/03 A3012 RMK AO2 SLP206 T00310031 $
Loading
Personal Weather Stations






























Interactive Weather Map
Tropical Storm Tracking
New forecast layout! Learn more

10-Day Weather Forecast

Advertisements
Track Severe Weather on mobile